Time;durP1;ratioP1;P1;durP2;ratioP2;P2;SDS_P1;SDS_P2;PMS_P1;PMS_P2;Temp;Humidity;BMP_temperature;BMP_pressure;BME280_temperature;BME280_humidity;BME280_pressure;Samples;Min_cycle;Max_cycle;Signal;HPM_P1;HPM_P2
2022/04/15 00:00:14;;;;;;;4.83;4.43;;;18.00;56.20;;;;;;5005234;28;20454;-87
2022/04/15 00:02:42;;;;;;;5.23;4.37;;;18.00;56.10;;;;;;5001080;28;20472;-86
2022/04/15 00:07:54;;;;;;;4.97;4.20;;;18.00;55.50;;;;;;4994987;28;20472;-85
2022/04/15 00:10:22;;;;;;;11.13;4.07;;;18.10;55.30;;;;;;4996038;28;20448;-86
2022/04/15 00:12:49;;;;;;;7.23;4.87;;;18.00;54.70;;;;;;5004412;28;20799;-86
2022/04/15 00:15:17;;;;;;;8.90;5.00;;;18.10;54.60;;;;;;5004021;28;20447;-87
2022/04/15 00:17:44;;;;;;;8.43;5.90;;;18.00;54.60;;;;;;5005218;28;20470;-88
2022/04/15 00:20:12;;;;;;;6.40;4.17;;;18.00;54.80;;;;;;5002456;28;20439;-87
2022/04/15 00:22:39;;;;;;;5.00;4.33;;;18.00;54.60;;;;;;5011815;28;20937;-88
2022/04/15 00:25:07;;;;;;;7.30;4.43;;;18.00;54.40;;;;;;4993064;28;20446;-86
2022/04/15 00:27:34;;;;;;;6.50;3.97;;;18.00;54.40;;;;;;5012333;28;20872;-85
2022/04/15 00:30:01;;;;;;;5.57;4.93;;;18.00;54.40;;;;;;5004670;28;21002;-87
2022/04/15 00:32:29;;;;;;;11.50;6.70;;;17.90;54.40;;;;;;4996480;28;20448;-86
2022/04/15 00:34:56;;;;;;;8.80;7.20;;;17.90;54.90;;;;;;5001539;28;20455;-85
2022/04/15 00:37:24;;;;;;;9.30;6.13;;;17.80;55.00;;;;;;5003425;28;21428;-88
2022/04/15 00:39:51;;;;;;;6.83;4.90;;;17.80;55.10;;;;;;5001556;28;20505;-86
2022/04/15 00:42:18;;;;;;;6.57;4.80;;;17.80;55.00;;;;;;5003529;28;20560;-87
2022/04/15 00:44:46;;;;;;;6.23;5.10;;;17.80;54.80;;;;;;5004782;28;20466;-86
2022/04/15 00:47:19;;;;;;;5.67;4.70;;;17.70;55.00;;;;;;4975991;28;21103;-87
2022/04/15 00:49:48;;;;;;;5.80;4.47;;;17.60;54.60;;;;;;4980077;28;20455;-87
2022/04/15 00:52:21;;;;;;;7.00;4.73;;;17.60;54.30;;;;;;4998609;28;22516;-86
2022/04/15 00:54:53;;;;;;;4.77;4.07;;;17.60;54.20;;;;;;4988632;28;20970;-89
2022/04/15 00:57:26;;;;;;;5.33;4.80;;;17.60;54.70;;;;;;4986888;28;20483;-86
2022/04/15 00:59:55;;;;;;;5.00;4.50;;;17.60;54.10;;;;;;4987488;28;20452;-87
2022/04/15 01:02:25;;;;;;;5.77;4.87;;;17.50;54.10;;;;;;4975499;28;20923;-86
2022/04/15 01:04:56;;;;;;;8.57;4.60;;;17.50;54.20;;;;;;4990592;28;20474;-86
2022/04/15 01:07:26;;;;;;;6.13;4.57;;;17.50;54.40;;;;;;4986656;28;20979;-89
2022/04/15 01:09:54;;;;;;;5.90;4.70;;;17.50;54.80;;;;;;4988674;28;20479;-87
2022/04/15 01:12:23;;;;;;;6.27;5.00;;;17.40;55.60;;;;;;4973805;28;20451;-86
2022/04/15 01:14:50;;;;;;;6.73;4.80;;;17.40;55.50;;;;;;4990474;28;20448;-86
2022/04/15 01:17:18;;;;;;;7.17;5.13;;;17.40;55.40;;;;;;4990228;28;20475;-89
2022/04/15 01:19:45;;;;;;;6.17;5.03;;;17.40;55.20;;;;;;4991466;28;20448;-86
2022/04/15 01:22:16;;;;;;;6.90;5.10;;;17.40;55.20;;;;;;4987126;28;21040;-88
2022/04/15 01:24:44;;;;;;;9.33;4.50;;;17.40;55.40;;;;;;4987382;28;20448;-87
2022/04/15 01:27:22;;;;;;;5.93;4.37;;;17.40;55.40;;;;;;4985563;28;20471;-86
2022/04/15 01:29:49;;;;;;;5.17;4.50;;;17.30;55.50;;;;;;4990644;28;20455;-86
2022/04/15 01:32:16;;;;;;;5.30;4.40;;;17.30;55.60;;;;;;4989657;28;20547;-88
2022/04/15 01:34:42;;;;;;;5.13;4.00;;;17.30;55.80;;;;;;4973493;28;20469;-86
2022/04/15 01:37:10;;;;;;;4.57;4.00;;;17.20;55.90;;;;;;4985513;28;21294;-86
2022/04/15 01:39:39;;;;;;;7.83;4.40;;;17.20;56.00;;;;;;4975793;28;20466;-86
2022/04/15 01:42:11;;;;;;;7.63;4.63;;;17.20;56.20;;;;;;4987263;28;20484;-86
2022/04/15 01:44:39;;;;;;;4.37;3.70;;;17.10;56.10;;;;;;4989994;28;20455;-86
2022/04/15 01:47:07;;;;;;;6.10;4.60;;;17.20;56.20;;;;;;4974923;28;20476;-86
2022/04/15 01:49:34;;;;;;;9.90;4.37;;;17.20;56.20;;;;;;4988851;28;20464;-87
2022/04/15 01:52:01;;;;;;;5.77;4.87;;;17.20;56.30;;;;;;4990919;28;20452;-86
2022/04/15 01:54:28;;;;;;;12.13;5.27;;;17.20;56.30;;;;;;4989030;28;20453;-87
2022/04/15 01:56:56;;;;;;;8.10;5.50;;;17.10;56.50;;;;;;4979667;28;20472;-86
2022/04/15 01:59:25;;;;;;;6.43;4.60;;;16.80;57.20;;;;;;4974470;28;20447;-86
2022/04/15 02:01:54;;;;;;;15.03;6.20;;;16.70;57.60;;;;;;4990160;28;21009;-86
2022/04/15 02:04:21;;;;;;;14.30;5.60;;;16.80;57.70;;;;;;4990019;28;21230;-89
2022/04/15 02:06:48;;;;;;;13.40;6.20;;;16.80;58.20;;;;;;4973592;28;20529;-86
2022/04/15 02:09:16;;;;;;;22.80;7.73;;;16.80;57.80;;;;;;4979795;28;20467;-85
2022/04/15 02:11:43;;;;;;;21.60;7.10;;;16.70;58.10;;;;;;4957085;28;20963;-86
2022/04/15 02:14:10;;;;;;;23.13;7.53;;;16.70;58.70;;;;;;4987452;28;20456;-84
2022/04/15 02:16:38;;;;;;;21.10;8.50;;;16.70;58.70;;;;;;4976341;28;20907;-86
2022/04/15 02:19:05;;;;;;;23.00;7.77;;;16.60;58.60;;;;;;4996321;28;20488;-85
2022/04/15 02:21:33;;;;;;;13.93;8.37;;;16.60;59.00;;;;;;4990233;28;20519;-85
2022/04/15 02:24:00;;;;;;;15.83;8.47;;;16.60;58.80;;;;;;4986446;28;20929;-84
2022/04/15 02:26:27;;;;;;;20.40;8.10;;;16.60;58.70;;;;;;4980248;28;20459;-87
2022/04/15 02:28:54;;;;;;;20.30;7.80;;;16.60;58.70;;;;;;4986823;28;20447;-87
2022/04/15 02:31:21;;;;;;;13.73;7.57;;;16.60;58.70;;;;;;4991145;28;20466;-87
2022/04/15 02:33:49;;;;;;;10.03;7.00;;;16.70;58.60;;;;;;4976092;28;20467;-86
2022/04/15 02:36:16;;;;;;;15.40;6.40;;;16.80;58.40;;;;;;4988424;28;20458;-87
2022/04/15 02:38:43;;;;;;;14.60;6.67;;;16.80;57.70;;;;;;4970844;28;20491;-85
2022/04/15 02:41:11;;;;;;;13.43;6.67;;;16.70;57.40;;;;;;4995083;28;20466;-86
2022/04/15 02:43:40;;;;;;;7.10;6.00;;;16.70;57.40;;;;;;4999813;28;20487;-88
2022/04/15 02:46:10;;;;;;;16.97;5.80;;;16.60;57.50;;;;;;4986985;28;20458;-86
2022/04/15 02:48:37;;;;;;;7.63;5.40;;;16.60;57.30;;;;;;4987575;28;20459;-86
2022/04/15 02:51:05;;;;;;;9.87;5.70;;;16.70;56.80;;;;;;4986579;28;20536;-89
2022/04/15 02:53:34;;;;;;;12.03;6.50;;;16.70;56.30;;;;;;4987600;28;20463;-87
2022/04/15 02:56:01;;;;;;;11.10;7.03;;;16.60;56.20;;;;;;4986244;28;20543;-86
2022/04/15 02:58:28;;;;;;;7.97;5.47;;;16.40;57.60;;;;;;4992364;28;20480;-87
2022/04/15 03:00:55;;;;;;;10.07;6.40;;;16.40;56.60;;;;;;4974941;28;20455;-86
2022/04/15 03:03:22;;;;;;;18.63;7.20;;;16.50;56.40;;;;;;4996907;28;20463;-86
2022/04/15 03:05:49;;;;;;;12.77;6.37;;;16.40;56.10;;;;;;4970647;28;20463;-89
2022/04/15 03:08:17;;;;;;;17.30;6.00;;;16.40;56.20;;;;;;4996647;28;20487;-87
2022/04/15 03:10:44;;;;;;;11.23;6.07;;;16.40;56.30;;;;;;4990633;28;20460;-87
2022/04/15 03:13:11;;;;;;;25.03;7.57;;;16.40;56.20;;;;;;4988205;28;20457;-88
2022/04/15 03:15:38;;;;;;;15.63;5.67;;;16.40;56.30;;;;;;4986671;28;20465;-86
2022/04/15 03:18:05;;;;;;;15.57;5.50;;;16.30;56.30;;;;;;4989656;28;21307;-86
2022/04/15 03:20:32;;;;;;;16.47;6.40;;;16.30;56.60;;;;;;4976457;28;20460;-86
2022/04/15 03:22:59;;;;;;;29.90;6.50;;;16.30;56.80;;;;;;4987114;28;20475;-86
2022/04/15 03:25:27;;;;;;;8.90;5.80;;;16.30;56.70;;;;;;4990947;28;21179;-85
2022/04/15 03:27:54;;;;;;;16.53;5.30;;;16.30;56.70;;;;;;4990067;28;20499;-89
2022/04/15 03:30:21;;;;;;;22.97;5.63;;;16.30;57.10;;;;;;4981098;28;20457;-86
2022/04/15 03:32:50;;;;;;;10.80;5.93;;;16.30;57.20;;;;;;5000690;28;20541;-88
2022/04/15 03:35:20;;;;;;;18.43;6.67;;;16.20;57.20;;;;;;4986915;28;20535;-85
2022/04/15 03:37:47;;;;;;;84.27;8.90;;;16.20;57.30;;;;;;5001640;28;20476;-86
2022/04/15 03:40:14;;;;;;;21.10;6.33;;;16.20;57.20;;;;;;4971320;28;20467;-86
2022/04/15 03:42:50;;;;;;;16.17;5.40;;;16.10;57.50;;;;;;4987232;28;20483;-86
2022/04/15 03:45:19;;;;;;;27.93;6.20;;;16.10;57.50;;;;;;4973104;28;20541;-88
2022/04/15 03:47:46;;;;;;;173.70;11.43;;;16.10;57.10;;;;;;4979681;28;20528;-88
2022/04/15 03:53:06;;;;;;;129.30;10.80;;;14.80;58.50;;;;;;4985586;28;20530;-87
2022/04/15 03:55:37;;;;;;;67.60;7.83;;;14.40;60.40;;;;;;4989129;28;20816;-86
2022/04/15 03:58:31;;;;;;;33.03;7.20;;;14.40;60.80;;;;;;4971679;28;20477;-86
2022/04/15 04:00:59;;;;;;;10.97;6.60;;;14.70;60.50;;;;;;4986799;28;20463;-87
2022/04/15 04:03:26;;;;;;;18.80;7.20;;;15.00;59.60;;;;;;4987224;28;20569;-87
2022/04/15 04:05:53;;;;;;;12.97;7.00;;;15.10;58.50;;;;;;4986103;28;20463;-86
2022/04/15 04:08:21;;;;;;;11.73;5.83;;;15.00;59.00;;;;;;4987685;28;20467;-86
2022/04/15 04:10:48;;;;;;;34.10;7.30;;;15.00;58.90;;;;;;4981324;28;20505;-87
2022/04/15 04:13:15;;;;;;;56.60;8.80;;;15.10;58.60;;;;;;4987761;28;20462;-86
2022/04/15 04:15:45;;;;;;;31.43;7.03;;;15.10;57.80;;;;;;4990562;28;20455;-86
2022/04/15 04:18:14;;;;;;;36.93;6.83;;;15.20;58.10;;;;;;4979641;28;20479;-86
2022/04/15 04:20:42;;;;;;;32.63;7.87;;;15.10;58.10;;;;;;4985765;28;20459;-86
2022/04/15 04:23:10;;;;;;;33.17;8.10;;;15.10;57.90;;;;;;4977225;28;20471;-88
2022/04/15 04:25:38;;;;;;;11.37;6.63;;;15.20;57.90;;;;;;4973191;28;20510;-86
2022/04/15 04:28:31;;;;;;;22.80;8.47;;;15.20;58.20;;;;;;4972699;28;20529;-86
2022/04/15 04:30:59;;;;;;;32.23;6.77;;;15.10;58.40;;;;;;4990092;28;20460;-86
2022/04/15 04:33:27;;;;;;;18.03;6.60;;;15.10;58.00;;;;;;4982687;28;20974;-87
2022/04/15 04:35:56;;;;;;;116.63;10.37;;;15.10;58.00;;;;;;4987216;28;20451;-88
2022/04/15 04:38:23;;;;;;;40.10;7.47;;;15.10;58.00;;;;;;4990558;28;20474;-86
2022/04/15 04:40:51;;;;;;;27.00;7.27;;;15.20;57.90;;;;;;4992687;28;20935;-85
2022/04/15 04:43:18;;;;;;;16.60;6.40;;;15.30;58.00;;;;;;4982962;28;21348;-84
2022/04/15 04:45:46;;;;;;;21.03;7.60;;;15.30;58.00;;;;;;4975968;28;20547;-86
2022/04/15 04:48:14;;;;;;;9.00;6.63;;;15.30;57.80;;;;;;4991965;28;20471;-86
2022/04/15 04:50:42;;;;;;;18.03;6.97;;;15.30;57.60;;;;;;4991761;28;20529;-86
2022/04/15 04:53:09;;;;;;;10.60;6.60;;;15.30;58.00;;;;;;4998047;28;22398;-86
2022/04/15 04:55:36;;;;;;;19.87;7.10;;;15.40;57.70;;;;;;4991752;28;20444;-86
2022/04/15 04:58:03;;;;;;;16.83;6.10;;;15.40;57.40;;;;;;4989271;28;21271;-87
2022/04/15 05:00:30;;;;;;;12.03;6.73;;;15.40;57.40;;;;;;4995614;28;20451;-86
2022/04/15 05:02:57;;;;;;;17.90;6.33;;;15.40;57.20;;;;;;4990197;28;20476;-86
2022/04/15 05:05:26;;;;;;;18.30;6.87;;;15.30;57.20;;;;;;4975520;28;20583;-86
2022/04/15 05:07:52;;;;;;;71.23;8.00;;;15.30;57.10;;;;;;4990051;28;20657;-86
2022/04/15 05:10:22;;;;;;;60.47;8.90;;;15.20;56.90;;;;;;4977034;28;20538;-86
2022/04/15 05:12:49;;;;;;;37.03;8.03;;;14.70;58.00;;;;;;4994018;28;20520;-86
2022/04/15 05:15:16;;;;;;;12.07;7.03;;;14.70;58.20;;;;;;4976584;28;20860;-86
2022/04/15 05:17:42;;;;;;;15.80;6.53;;;14.80;58.40;;;;;;4989867;28;20480;-86
2022/04/15 05:20:10;;;;;;;31.23;8.00;;;14.90;58.40;;;;;;4997258;28;20459;-87
2022/04/15 05:22:38;;;;;;;11.23;6.57;;;15.00;57.80;;;;;;4992828;28;20475;-86
2022/04/15 05:25:06;;;;;;;96.33;9.93;;;15.10;58.30;;;;;;4988118;28;20451;-86
2022/04/15 05:27:33;;;;;;;81.50;9.30;;;14.80;57.30;;;;;;4973186;28;20571;-86
2022/04/15 05:30:00;;;;;;;69.97;9.63;;;14.30;58.50;;;;;;4990369;28;20819;-87
2022/04/15 05:32:27;;;;;;;85.93;11.80;;;14.10;59.60;;;;;;4989740;28;20465;-87
2022/04/15 05:34:54;;;;;;;25.57;7.97;;;13.90;60.30;;;;;;4975264;28;20456;-86
2022/04/15 05:37:21;;;;;;;29.83;7.80;;;14.00;60.40;;;;;;4991753;28;20474;-86
2022/04/15 05:39:49;;;;;;;37.37;7.00;;;14.10;60.40;;;;;;4991214;28;20448;-86
2022/04/15 05:42:16;;;;;;;55.17;7.80;;;14.20;60.40;;;;;;4989383;28;20467;-86
2022/04/15 05:44:43;;;;;;;22.33;8.20;;;14.10;60.40;;;;;;4980944;28;20475;-86
2022/04/15 05:47:10;;;;;;;34.93;8.30;;;14.20;60.40;;;;;;4989939;28;20475;-86
2022/04/15 05:49:37;;;;;;;22.93;8.67;;;14.30;60.30;;;;;;4973376;28;20509;-86
2022/04/15 05:52:04;;;;;;;31.03;10.20;;;14.00;61.00;;;;;;4991219;28;20450;-86
2022/04/15 05:54:31;;;;;;;31.13;8.40;;;14.20;61.10;;;;;;4989171;28;20455;-88
2022/04/15 05:57:00;;;;;;;27.67;7.80;;;14.30;60.80;;;;;;4981703;28;20804;-86
2022/04/15 05:59:26;;;;;;;19.80;8.23;;;14.20;60.90;;;;;;4988934;28;20447;-87
2022/04/15 06:01:53;;;;;;;25.93;8.27;;;14.30;61.00;;;;;;4987617;28;20452;-88
2022/04/15 06:04:20;;;;;;;17.17;8.20;;;14.40;61.00;;;;;;4961604;28;20471;-86
2022/04/15 06:06:47;;;;;;;21.30;7.00;;;14.50;60.30;;;;;;4989017;28;20473;-86
2022/04/15 06:09:15;;;;;;;12.03;6.87;;;14.50;60.20;;;;;;4990464;28;20517;-86
2022/04/15 06:11:42;;;;;;;19.77;7.57;;;14.30;60.30;;;;;;4992585;28;20468;-88
2022/04/15 06:14:10;;;;;;;27.77;7.20;;;14.00;61.20;;;;;;4989545;28;20452;-85
2022/04/15 06:16:39;;;;;;;162.20;15.17;;;14.30;61.20;;;;;;5066747;28;21292;-86
2022/04/15 06:19:06;;;;;;;172.23;12.63;;;14.20;59.50;;;;;;4989525;28;20543;-86
2022/04/15 06:21:34;;;;;;;227.53;16.00;;;14.20;60.30;;;;;;4990847;28;20984;-86
2022/04/15 06:24:01;;;;;;;15.17;7.53;;;13.70;60.80;;;;;;4990092;28;20494;-86
2022/04/15 06:26:28;;;;;;;19.27;9.00;;;14.00;62.10;;;;;;4985882;28;20452;-89
2022/04/15 06:28:55;;;;;;;27.43;9.23;;;14.30;62.40;;;;;;4992123;28;20585;-86
2022/04/15 06:31:23;;;;;;;29.33;10.07;;;14.60;61.70;;;;;;4982002;28;20440;-86
2022/04/15 06:33:52;;;;;;;17.80;7.97;;;14.50;60.80;;;;;;4992597;28;20459;-86
2022/04/15 06:36:19;;;;;;;16.17;10.73;;;14.30;61.50;;;;;;4991267;28;20457;-88
2022/04/15 06:38:46;;;;;;;15.27;8.50;;;14.40;61.60;;;;;;4990901;28;20468;-88
2022/04/15 06:41:13;;;;;;;35.20;8.23;;;14.70;61.30;;;;;;4981158;28;20463;-87
2022/04/15 06:43:41;;;;;;;9.57;6.80;;;15.00;60.00;;;;;;4993618;28;20479;-88
2022/04/15 06:46:08;;;;;;;20.43;11.00;;;15.30;59.60;;;;;;4993770;28;20488;-89
2022/04/15 06:48:36;;;;;;;11.63;6.77;;;15.20;59.10;;;;;;4980675;28;20560;-87
2022/04/15 06:51:03;;;;;;;21.43;9.17;;;15.00;59.80;;;;;;4984729;28;20441;-88
2022/04/15 06:53:30;;;;;;;22.50;17.43;;;15.00;60.20;;;;;;4988998;28;20440;-87
2022/04/15 06:55:58;;;;;;;54.27;10.50;;;14.90;60.80;;;;;;4988872;28;20805;-88
2022/04/15 06:58:24;;;;;;;21.43;11.73;;;15.00;60.70;;;;;;4996022;28;20476;-87
2022/04/15 07:00:53;;;;;;;20.10;9.10;;;15.30;59.90;;;;;;4990343;28;20452;-88
2022/04/15 07:03:20;;;;;;;10.10;8.03;;;15.10;59.80;;;;;;4956003;28;20609;-88
2022/04/15 07:05:48;;;;;;;18.17;8.47;;;14.80;60.60;;;;;;4990101;28;20448;-88
2022/04/15 07:08:15;;;;;;;22.77;9.03;;;14.60;61.40;;;;;;4984577;28;20476;-84
2022/04/15 07:10:42;;;;;;;17.93;9.67;;;14.70;61.70;;;;;;4985240;28;20449;-85
2022/04/15 07:13:10;;;;;;;15.87;10.63;;;14.80;60.40;;;;;;4985146;28;20464;-87
2022/04/15 07:15:37;;;;;;;12.80;9.77;;;14.70;61.60;;;;;;4982924;28;20468;-87
2022/04/15 07:18:05;;;;;;;15.83;7.90;;;14.70;62.10;;;;;;4984877;28;20484;-86
2022/04/15 07:20:32;;;;;;;12.93;8.80;;;14.70;62.10;;;;;;4968133;28;20570;-87
2022/04/15 07:23:01;;;;;;;12.37;8.13;;;14.70;62.40;;;;;;4982753;28;20467;-85
2022/04/15 07:25:28;;;;;;;16.10;9.20;;;14.80;62.00;;;;;;4982051;28;20509;-88
2022/04/15 07:27:56;;;;;;;15.57;9.17;;;14.90;61.40;;;;;;4984908;28;20511;-85
2022/04/15 07:30:24;;;;;;;12.03;7.90;;;15.00;61.50;;;;;;4985267;28;21060;-85
2022/04/15 07:32:53;;;;;;;11.77;9.00;;;15.10;61.50;;;;;;4983148;28;20456;-86
2022/04/15 07:35:20;;;;;;;13.20;8.77;;;15.10;61.20;;;;;;4983131;28;20467;-87
2022/04/15 07:37:46;;;;;;;12.33;8.60;;;15.30;61.70;;;;;;4985279;28;20472;-88
2022/04/15 07:40:15;;;;;;;10.27;8.90;;;15.50;60.80;;;;;;4977507;28;20940;-88
2022/04/15 07:42:42;;;;;;;10.23;7.80;;;15.40;60.80;;;;;;4968750;28;20460;-86
2022/04/15 07:45:10;;;;;;;9.33;7.60;;;15.20;61.50;;;;;;4966242;28;21012;-86
2022/04/15 07:47:37;;;;;;;11.63;8.47;;;15.30;62.20;;;;;;4985735;28;20533;-85
2022/04/15 07:50:04;;;;;;;10.53;8.93;;;15.60;61.50;;;;;;4985609;28;20460;-85
2022/04/15 07:52:33;;;;;;;12.90;10.53;;;15.80;60.90;;;;;;4985579;28;20459;-87
2022/04/15 07:55:00;;;;;;;11.10;9.80;;;16.10;60.10;;;;;;4981671;28;20538;-87
2022/04/15 07:57:30;;;;;;;10.70;9.63;;;16.30;59.60;;;;;;4986590;28;20487;-85
2022/04/15 07:59:57;;;;;;;8.90;7.10;;;16.60;59.00;;;;;;4980758;28;20460;-87
2022/04/15 08:02:23;;;;;;;8.83;7.30;;;16.50;59.20;;;;;;4984771;28;20456;-87
2022/04/15 08:04:51;;;;;;;8.03;6.33;;;16.40;59.60;;;;;;4989209;28;20510;-85
2022/04/15 08:07:18;;;;;;;8.60;7.30;;;16.50;60.00;;;;;;4986600;28;20478;-87
2022/04/15 08:09:45;;;;;;;9.53;8.17;;;16.50;59.60;;;;;;4987222;28;20458;-85
2022/04/15 08:12:12;;;;;;;8.37;7.57;;;16.50;59.80;;;;;;4987874;28;20467;-86
2022/04/15 08:14:41;;;;;;;7.60;6.77;;;16.80;59.70;;;;;;4986646;28;20455;-85
2022/04/15 08:17:08;;;;;;;11.20;7.60;;;17.20;59.00;;;;;;4988535;28;20452;-85
2022/04/15 08:19:35;;;;;;;8.70;7.07;;;17.40;57.90;;;;;;4989168;28;20531;-85
2022/04/15 08:22:03;;;;;;;9.50;7.37;;;17.50;57.30;;;;;;4988423;28;20712;-86
2022/04/15 08:24:30;;;;;;;10.37;7.47;;;17.60;57.10;;;;;;4989535;28;20474;-85
2022/04/15 08:26:57;;;;;;;9.73;6.80;;;17.70;57.10;;;;;;4984805;28;20558;-89
2022/04/15 08:29:24;;;;;;;13.70;7.80;;;17.90;56.80;;;;;;4988087;28;20551;-86
2022/04/15 08:31:53;;;;;;;9.63;8.27;;;17.90;56.40;;;;;;4988330;28;20962;-86
2022/04/15 08:34:19;;;;;;;9.67;7.73;;;18.00;55.80;;;;;;4986225;28;21016;-85
2022/04/15 08:36:47;;;;;;;12.30;8.10;;;18.00;55.90;;;;;;4986938;28;20479;-85
2022/04/15 08:39:13;;;;;;;15.47;8.60;;;18.10;55.50;;;;;;4988504;28;20463;-85
2022/04/15 08:41:43;;;;;;;8.50;7.37;;;18.30;55.30;;;;;;4988945;28;20460;-85
2022/04/15 08:44:10;;;;;;;10.77;8.00;;;18.50;55.00;;;;;;4988831;28;20479;-86
2022/04/15 08:46:37;;;;;;;8.37;7.00;;;18.70;54.20;;;;;;4989278;28;20464;-85
2022/04/15 08:49:07;;;;;;;8.50;7.33;;;18.80;53.80;;;;;;4969884;28;21163;-86
2022/04/15 08:51:35;;;;;;;8.27;7.17;;;19.00;54.00;;;;;;4999795;28;21113;-86
2022/04/15 08:54:06;;;;;;;9.83;6.73;;;19.20;52.70;;;;;;4985703;28;20450;-86
2022/04/15 08:56:32;;;;;;;9.07;6.83;;;19.30;52.40;;;;;;4969303;28;20494;-85
2022/04/15 08:58:59;;;;;;;8.90;6.20;;;19.50;52.00;;;;;;4985563;28;20514;-88
2022/04/15 09:01:26;;;;;;;7.40;5.80;;;19.70;50.60;;;;;;4989311;28;20463;-87
2022/04/15 09:03:54;;;;;;;8.70;6.20;;;19.80;49.10;;;;;;4987249;28;20930;-89
2022/04/15 09:06:29;;;;;;;9.57;7.27;;;19.80;49.70;;;;;;4987579;28;20563;-86
2022/04/15 09:09:01;;;;;;;9.60;7.60;;;19.90;48.70;;;;;;4987192;28;20559;-89
2022/04/15 09:11:32;;;;;;;10.63;8.37;;;20.00;47.80;;;;;;4989369;28;20460;-86
2022/04/15 09:14:02;;;;;;;11.10;7.43;;;20.30;47.80;;;;;;4987929;28;20941;-86
2022/04/15 09:16:30;;;;;;;11.33;7.20;;;20.60;47.20;;;;;;4986771;28;20452;-87
2022/04/15 09:18:57;;;;;;;8.33;6.70;;;20.70;45.10;;;;;;4988294;28;20463;-86
2022/04/15 09:21:26;;;;;;;11.83;7.20;;;20.70;46.20;;;;;;4976372;28;21054;-87
2022/04/15 09:23:54;;;;;;;8.90;7.13;;;20.70;45.40;;;;;;4985812;28;20474;-86
2022/04/15 09:26:22;;;;;;;7.67;3.17;;;20.80;47.70;;;;;;4986240;28;20508;-87
2022/04/15 09:28:50;;;;;;;2.00;1.77;;;21.00;44.30;;;;;;4988057;28;20481;-88
2022/04/15 09:31:21;;;;;;;2.03;1.30;;;21.00;42.00;;;;;;4987211;28;20567;-86
2022/04/15 09:33:56;;;;;;;3.13;1.50;;;21.20;42.20;;;;;;4988465;28;20464;-86
2022/04/15 09:36:26;;;;;;;1.70;1.30;;;21.40;40.10;;;;;;4988104;28;20859;-86
2022/04/15 09:39:01;;;;;;;1.10;0.80;;;21.40;37.60;;;;;;4990316;28;20451;-86
2022/04/15 09:41:30;;;;;;;1.23;0.93;;;21.50;39.20;;;;;;4986925;28;20464;-87
2022/04/15 09:43:58;;;;;;;1.80;1.33;;;21.70;38.10;;;;;;4967781;28;20467;-86
2022/04/15 09:46:27;;;;;;;1.00;0.87;;;21.60;36.60;;;;;;4974632;28;20929;-86
2022/04/15 09:49:06;;;;;;;1.20;1.10;;;21.80;36.40;;;;;;4985675;28;20452;-86
2022/04/15 09:51:43;;;;;;;1.30;1.20;;;21.60;35.30;;;;;;4980250;28;20455;-87
2022/04/15 09:54:12;;;;;;;1.07;0.97;;;21.60;35.20;;;;;;4979407;28;20548;-85
2022/04/15 09:56:42;;;;;;;1.20;1.10;;;21.60;35.80;;;;;;4987475;28;20475;-86
2022/04/15 09:59:11;;;;;;;1.30;1.10;;;21.60;35.70;;;;;;4956501;28;20466;-86
2022/04/15 10:01:43;;;;;;;1.00;0.90;;;21.80;36.20;;;;;;4979979;28;20452;-86
2022/04/15 10:04:11;;;;;;;1.00;0.90;;;22.10;37.10;;;;;;4973314;28;20483;-86
2022/04/15 10:06:41;;;;;;;11.73;5.00;;;22.20;37.10;;;;;;4979963;28;20470;-87
2022/04/15 10:09:11;;;;;;;1.43;1.00;;;22.50;37.00;;;;;;4978555;28;20481;-85
2022/04/15 10:11:40;;;;;;;1.50;1.00;;;22.40;34.00;;;;;;4984005;28;20445;-87
2022/04/15 10:14:08;;;;;;;2.10;1.00;;;22.30;34.60;;;;;;5003218;28;20505;-86
2022/04/15 10:16:38;;;;;;;2.40;1.23;;;22.20;37.00;;;;;;4985931;28;20900;-87
2022/04/15 10:19:05;;;;;;;2.00;1.10;;;22.50;35.50;;;;;;4985554;28;20453;-86
2022/04/15 10:21:33;;;;;;;1.37;1.10;;;22.20;35.70;;;;;;4988984;28;20443;-87
2022/04/15 10:24:03;;;;;;;1.10;1.00;;;22.40;36.70;;;;;;4986955;28;20460;-86
2022/04/15 10:26:39;;;;;;;1.20;1.07;;;22.60;37.50;;;;;;4968741;28;20466;-84
2022/04/15 10:29:06;;;;;;;1.77;1.13;;;22.70;35.50;;;;;;4985075;28;20462;-85
2022/04/15 10:31:41;;;;;;;1.07;0.90;;;22.80;35.10;;;;;;4989263;28;20460;-85
2022/04/15 10:34:12;;;;;;;0.90;0.80;;;22.40;32.10;;;;;;4987153;28;20454;-85
2022/04/15 10:36:44;;;;;;;1.40;0.90;;;22.50;34.00;;;;;;4987632;28;20483;-87
2022/04/15 10:39:18;;;;;;;1.07;0.97;;;22.80;32.50;;;;;;4987472;28;20451;-85
2022/04/15 10:42:05;;;;;;;1.53;0.80;;;22.80;31.60;;;;;;4973514;28;20522;-85
2022/04/15 10:44:36;;;;;;;1.20;1.10;;;22.60;32.70;;;;;;4984576;28;20472;-85
2022/04/15 10:47:29;;;;;;;1.10;1.00;;;22.70;32.70;;;;;;4983045;28;20896;-84
2022/04/15 10:50:01;;;;;;;2.37;0.90;;;23.00;32.90;;;;;;4991526;28;20538;-86
2022/04/15 10:52:30;;;;;;;1.90;0.90;;;22.60;32.50;;;;;;4988563;28;20556;-85
2022/04/15 10:55:00;;;;;;;1.30;1.20;;;22.90;34.10;;;;;;4984305;28;21069;-85
2022/04/15 10:57:35;;;;;;;1.30;0.80;;;23.00;31.20;;;;;;4985693;28;20473;-85
2022/04/15 11:02:53;;;;;;;0.97;0.87;;;23.40;32.80;;;;;;4985945;28;20896;-86
2022/04/15 11:05:35;;;;;;;1.57;1.03;;;23.80;31.70;;;;;;4985061;28;20507;-87
2022/04/15 11:08:06;;;;;;;1.30;1.03;;;24.00;31.40;;;;;;4986228;28;21057;-85
2022/04/15 11:10:58;;;;;;;1.00;0.87;;;24.10;31.10;;;;;;4984801;28;20512;-85
2022/04/15 11:14:00;;;;;;;1.03;0.93;;;24.40;30.90;;;;;;4990573;28;20529;-86
2022/04/15 11:16:46;;;;;;;5.17;1.27;;;24.40;31.20;;;;;;4968136;28;20444;-85
2022/04/15 11:19:13;;;;;;;2.07;1.10;;;24.20;33.00;;;;;;4977739;28;20448;-87
2022/04/15 11:21:40;;;;;;;1.20;1.10;;;24.10;32.50;;;;;;4967214;28;20436;-86
2022/04/15 11:24:09;;;;;;;1.20;1.10;;;23.90;31.20;;;;;;4985030;28;20452;-86
2022/04/15 11:26:40;;;;;;;1.50;1.10;;;23.80;30.40;;;;;;4987416;28;20567;-86
2022/04/15 11:29:09;;;;;;;1.10;1.00;;;23.60;32.00;;;;;;4984481;28;20451;-87
2022/04/15 11:31:38;;;;;;;1.77;1.27;;;23.30;30.70;;;;;;4986282;28;20451;-86
2022/04/15 11:34:06;;;;;;;1.63;1.00;;;23.00;31.40;;;;;;4984429;28;21038;-85
2022/04/15 11:36:35;;;;;;;2.37;1.13;;;23.00;31.90;;;;;;4976260;28;20456;-87
2022/04/15 11:39:05;;;;;;;2.00;1.30;;;22.80;33.30;;;;;;4983528;28;20468;-87
2022/04/15 11:41:33;;;;;;;2.43;1.30;;;23.20;34.80;;;;;;4985016;28;20479;-87
2022/04/15 11:44:03;;;;;;;2.33;1.27;;;23.20;34.30;;;;;;4983823;28;20575;-86
2022/04/15 11:46:39;;;;;;;1.30;1.10;;;23.20;34.00;;;;;;4983627;28;20460;-85
2022/04/15 11:49:13;;;;;;;1.53;1.10;;;23.30;33.60;;;;;;4999954;28;20459;-85
2022/04/15 11:51:40;;;;;;;1.27;1.17;;;23.40;34.20;;;;;;4986204;28;20453;-86
2022/04/15 11:54:07;;;;;;;1.40;1.30;;;23.10;33.50;;;;;;4985429;28;20452;-85
2022/04/15 11:56:35;;;;;;;1.87;1.20;;;23.10;33.90;;;;;;4986176;28;20448;-87
2022/04/15 11:59:05;;;;;;;1.10;1.00;;;23.10;34.40;;;;;;4983661;28;20456;-87
2022/04/15 12:01:33;;;;;;;1.80;1.40;;;23.50;32.40;;;;;;4984487;28;20966;-87
2022/04/15 12:04:00;;;;;;;2.70;1.30;;;23.80;32.70;;;;;;4982037;28;20456;-84
2022/04/15 12:06:29;;;;;;;2.03;1.33;;;24.00;32.20;;;;;;4984162;28;20482;-86
2022/04/15 12:08:57;;;;;;;1.83;1.23;;;24.30;31.10;;;;;;4991035;28;20462;-86
2022/04/15 12:11:26;;;;;;;1.30;1.20;;;24.70;31.40;;;;;;4984388;28;20955;-86
2022/04/15 12:13:56;;;;;;;3.53;1.30;;;24.70;30.70;;;;;;4981674;28;20951;-86
2022/04/15 12:16:24;;;;;;;2.17;1.33;;;24.70;31.20;;;;;;4986683;28;21353;-86
2022/04/15 12:18:52;;;;;;;2.07;1.40;;;24.60;31.60;;;;;;4982239;28;20575;-86
2022/04/15 12:21:21;;;;;;;1.50;1.10;;;24.80;31.50;;;;;;4985084;28;20689;-87
2022/04/15 12:24:01;;;;;;;1.30;1.20;;;25.00;29.70;;;;;;4984443;28;20802;-85
2022/04/15 12:26:28;;;;;;;1.50;1.40;;;24.80;29.00;;;;;;4968704;28;20863;-86
2022/04/15 12:31:49;;;;;;;1.20;1.00;;;24.90;29.80;;;;;;4982457;28;20445;-86
2022/04/15 12:34:16;;;;;;;1.30;1.20;;;25.00;30.70;;;;;;4984403;28;20514;-87
2022/04/15 12:36:46;;;;;;;1.77;1.20;;;25.30;31.40;;;;;;4980160;28;20452;-85
2022/04/15 12:39:14;;;;;;;3.73;1.30;;;24.80;29.60;;;;;;4982839;28;20443;-86
2022/04/15 12:41:43;;;;;;;4.13;1.30;;;24.60;28.70;;;;;;4986385;28;20470;-86
2022/04/15 12:44:14;;;;;;;2.30;1.10;;;24.50;28.40;;;;;;4984175;28;20546;-86
2022/04/15 12:46:44;;;;;;;1.63;1.20;;;24.60;30.20;;;;;;4985756;28;20468;-85
2022/04/15 12:49:27;;;;;;;2.70;1.53;;;24.80;28.60;;;;;;4985442;28;20443;-87
2022/04/15 12:51:58;;;;;;;1.27;1.17;;;24.70;29.40;;;;;;4987126;28;20455;-86
2022/04/15 12:54:27;;;;;;;1.40;1.30;;;24.50;28.10;;;;;;4987711;28;20514;-86
2022/04/15 12:56:57;;;;;;;1.77;1.20;;;24.40;28.00;;;;;;4985490;28;20516;-86
2022/04/15 12:59:24;;;;;;;2.17;2.07;;;24.10;28.30;;;;;;4987437;28;20456;-86